createdAt,value
2018-07-02T00:00:10.972Z,80.61
2018-07-02T00:01:11.765Z,80.9
2018-07-02T00:02:11.301Z,81.37
2018-07-02T00:03:11.326Z,81.09
2018-07-02T00:05:11.827Z,81.09
2018-07-02T00:06:11.478Z,81.37
2018-07-02T00:09:11.174Z,81.47
2018-07-02T00:10:11.513Z,81.27
2018-07-02T00:11:11.557Z,81.56
2018-07-02T00:12:11.533Z,81.18
2018-07-02T00:13:26.173Z,81.85
2018-07-02T00:14:11.718Z,81.95
2018-07-02T00:15:11.578Z,81.76
2018-07-02T00:16:11.693Z,82.14
2018-07-02T00:17:11.641Z,82.23
2018-07-02T00:18:11.372Z,82.23
2018-07-02T00:19:11.676Z,82.61
2018-07-02T00:20:11.689Z,82.9
2018-07-02T00:21:11.719Z,82.52
2018-07-02T00:22:12.205Z,82.52
2018-07-02T00:23:11.776Z,82.81
2018-07-02T00:24:11.772Z,83.18
2018-07-02T00:25:11.822Z,83.38
2018-07-02T00:26:11.816Z,83.86
2018-07-02T00:27:11.562Z,83.67
2018-07-02T00:28:11.861Z,83.86
2018-07-02T00:29:26.525Z,83.57
2018-07-02T00:30:12.474Z,83.38
2018-07-02T00:31:11.924Z,83.53
2018-07-02T00:32:11.959Z,83.72
2018-07-02T00:33:11.972Z,83.43
2018-07-02T00:35:12.017Z,84.29
2018-07-02T00:36:12.053Z,84.2
2018-07-02T00:37:12.058Z,84.1
2018-07-02T00:38:12.104Z,84.29
2018-07-02T00:40:12.125Z,84.1
2018-07-02T00:41:12.156Z,84.67
2018-07-02T00:42:12.167Z,85.05
2018-07-02T00:43:12.224Z,85.15
2018-07-02T00:44:26.853Z,85.63
2018-07-02T00:45:11.957Z,85.63
2018-07-02T00:46:12.251Z,85.72
2018-07-02T00:47:12.784Z,85.44
2018-07-02T00:48:12.307Z,85.44
2018-07-02T00:49:12.785Z,85.63
2018-07-02T00:50:12.340Z,85.72
2018-07-02T00:51:12.086Z,85.53
2018-07-02T00:52:12.109Z,86.01
2018-07-02T00:53:12.129Z,86.01
2018-07-02T00:54:12.425Z,85.97
2018-07-02T00:55:12.447Z,86.39
2018-07-02T00:56:12.918Z,86.16
2018-07-02T00:57:12.533Z,86.25
2018-07-02T00:58:12.525Z,86.16
2018-07-02T00:59:12.558Z,86.63
2018-07-02T01:00:12.579Z,86.44
2018-07-02T01:01:12.591Z,86.82
2018-07-02T01:02:12.602Z,87.21
2018-07-02T01:03:13.085Z,87.21
2018-07-02T01:04:12.668Z,87.21
2018-07-02T01:05:12.678Z,87.11
2018-07-02T01:06:12.410Z,87.21
2018-07-02T01:07:12.721Z,87.87
2018-07-02T01:08:12.742Z,87.68
2018-07-02T01:09:12.756Z,87.78
2018-07-02T01:10:13.345Z,87.68
2018-07-02T01:11:12.520Z,87.78
2018-07-02T01:12:12.543Z,87.49
2018-07-02T01:13:13.254Z,87.78
2018-07-02T01:14:12.869Z,88.16
2018-07-02T01:15:12.913Z,88.07
2018-07-02T01:16:27.545Z,87.87
2018-07-02T01:17:12.941Z,87.97
2018-07-02T01:18:12.670Z,87.97
2018-07-02T01:19:13.509Z,88.45
2018-07-02T01:20:13.011Z,88.35
2018-07-02T01:21:12.739Z,88.92
2018-07-02T01:22:13.052Z,88.88
2018-07-02T01:23:13.051Z,88.78
2018-07-02T01:25:13.106Z,89.02
2018-07-02T01:26:13.120Z,89.31
2018-07-02T01:27:13.148Z,89.17
2018-07-02T01:28:13.192Z,88.69
2018-07-02T01:29:13.182Z,89.07
2018-07-02T01:30:13.220Z,89.07
2018-07-02T01:31:13.223Z,89.93
2018-07-02T01:32:27.887Z,89.74
2018-07-02T01:33:12.992Z,89.54
2018-07-02T01:34:13.012Z,89.64
2018-07-02T01:35:13.307Z,90.12
2018-07-02T01:36:13.328Z,90.31
2018-07-02T01:37:13.075Z,90.5
2018-07-02T01:38:13.383Z,90.59
2018-07-02T01:39:13.956Z,90.69
2018-07-02T01:40:13.456Z,90.5
2018-07-02T01:41:14.117Z,91.17
2018-07-02T01:42:13.469Z,90.69
2018-07-02T01:43:13.489Z,90.88
2018-07-02T01:44:14.167Z,90.88
2018-07-02T01:45:13.518Z,91.07
2018-07-02T01:46:13.557Z,91.27
2018-07-02T01:47:13.595Z,90.88
2018-07-02T01:48:28.226Z,91.36
2018-07-02T01:49:13.622Z,91.27
2018-07-02T01:50:13.657Z,91.55
2018-07-02T01:51:14.161Z,92.03
2018-07-02T01:52:13.668Z,91.83
2018-07-02T01:53:13.702Z,92.08
2018-07-02T01:54:14.153Z,92.17
2018-07-02T01:55:13.758Z,92.84
2018-07-02T01:56:13.778Z,92.5
2018-07-02T01:57:13.781Z,92.5
2018-07-02T01:58:14.258Z,92.65
2018-07-02T02:00:13.565Z,93.12
2018-07-02T02:01:13.856Z,93.03
2018-07-02T02:02:13.877Z,92.36
2018-07-02T02:03:13.916Z,92.65
2018-07-02T02:04:28.567Z,92.12
2018-07-02T02:05:13.946Z,92.41
2018-07-02T02:06:14.457Z,92.08
2018-07-02T02:07:13.997Z,91.88
2018-07-02T02:09:14.035Z,92.17
2018-07-02T02:10:13.776Z,92.65
2018-07-02T02:11:14.081Z,93.32
2018-07-02T02:12:14.086Z,93.32
2018-07-02T02:13:14.116Z,93.51
2018-07-02T02:14:14.228Z,93.88
2018-07-02T02:15:14.161Z,93.98
2018-07-02T02:17:14.200Z,93.88
2018-07-02T02:18:13.946Z,93.7
2018-07-02T02:19:28.885Z,93.88
2018-07-02T02:20:14.269Z,94.56
2018-07-02T02:21:14.286Z,94.84
2018-07-02T02:23:14.329Z,95.61
2018-07-02T02:24:14.343Z,95.32
2018-07-02T02:25:14.371Z,95.32
2018-07-02T02:26:14.408Z,95.22
2018-07-02T02:27:14.407Z,95.51
2018-07-02T02:28:14.425Z,95.79
2018-07-02T02:29:14.457Z,95.51
2018-07-02T02:30:14.479Z,95.61
2018-07-02T02:31:14.732Z,95.32
2018-07-02T02:32:14.241Z,95.61
2018-07-02T02:33:14.544Z,95.79
2018-07-02T02:34:14.593Z,95.61
2018-07-02T02:35:15.173Z,95.32
2018-07-02T02:36:14.625Z,95.51
2018-07-02T02:37:14.616Z,95.61
2018-07-02T02:38:14.714Z,95.03
2018-07-02T02:39:15.219Z,95.22
2018-07-02T02:40:14.679Z,95.51
2018-07-02T02:41:14.712Z,95.12
2018-07-02T02:42:14.716Z,95.12
2018-07-02T02:43:15.229Z,95.32
2018-07-02T02:44:14.766Z,94.74
2018-07-02T02:46:14.808Z,94.93
2018-07-02T02:47:15.240Z,95.03
2018-07-02T02:48:14.859Z,95.03
2018-07-02T02:49:14.599Z,94.93
2018-07-02T02:50:14.905Z,94.65
2018-07-02T02:51:29.557Z,95.03
2018-07-02T02:52:14.939Z,94.93
2018-07-02T02:53:14.954Z,94.93
2018-07-02T02:54:14.978Z,95.12
2018-07-02T02:55:15.251Z,95.22
2018-07-02T02:56:15.021Z,95.03
2018-07-02T02:57:15.041Z,95.32
2018-07-02T02:58:15.063Z,95.03
2018-07-02T03:00:15.102Z,94.74
2018-07-02T03:01:15.123Z,95.12
2018-07-02T03:02:15.152Z,94.84
2018-07-02T03:03:15.171Z,95.51
2018-07-02T03:04:15.672Z,95.51
2018-07-02T03:05:15.205Z,95.61
2018-07-02T03:06:15.228Z,95.79
2018-07-02T03:07:29.889Z,95.51
2018-07-02T03:10:15.338Z,95.98
2018-07-02T03:11:15.327Z,96.08
2018-07-02T03:12:15.077Z,95.98
2018-07-02T03:13:15.368Z,95.98
2018-07-02T03:14:15.396Z,96.27
2018-07-02T03:15:15.407Z,96.36
2018-07-02T03:17:15.450Z,96.84
2018-07-02T03:18:15.471Z,96.84
2018-07-02T03:19:15.503Z,96.65
2018-07-02T03:21:15.535Z,97.22
2018-07-02T03:22:15.588Z,97.32
2018-07-02T03:23:30.223Z,97.22
2018-07-02T03:24:15.631Z,96.84
2018-07-02T03:25:15.985Z,97.51
2018-07-02T03:26:15.640Z,96.65
2018-07-02T03:27:15.663Z,96.65
2018-07-02T03:28:15.699Z,96.56
2018-07-02T03:29:16.188Z,96.65
2018-07-02T03:31:15.743Z,97.32
2018-07-02T03:32:15.771Z,97.03
2018-07-02T03:33:16.233Z,97.03
2018-07-02T03:34:15.802Z,97.22
2018-07-02T03:35:15.821Z,97.13
2018-07-02T03:36:15.843Z,97.03
2018-07-02T03:37:16.206Z,96.84
2018-07-02T03:38:15.615Z,97.03
2018-07-02T03:39:30.557Z,97.41
2018-07-02T03:40:15.940Z,97.03
2018-07-02T03:41:16.601Z,96.84
2018-07-02T03:42:15.966Z,97.03
2018-07-02T03:43:15.985Z,97.13
2018-07-02T03:44:16.008Z,96.94
2018-07-02T03:45:16.032Z,97.22
2018-07-02T03:46:16.068Z,97.41
2018-07-02T03:48:16.091Z,97.22
2018-07-02T03:49:16.147Z,97.13
2018-07-02T03:50:16.133Z,97.13
2018-07-02T03:51:16.153Z,97.32
2018-07-02T03:52:16.177Z,97.03
2018-07-02T03:53:16.213Z,97.03
2018-07-02T03:54:30.868Z,97.03
2018-07-02T03:55:16.349Z,96.94
2018-07-02T03:56:16.262Z,97.41
2018-07-02T03:57:16.308Z,97.03
2018-07-02T03:58:16.300Z,97.22
2018-07-02T03:59:16.053Z,97.22
2018-07-02T04:00:16.550Z,97.22
2018-07-02T04:01:16.499Z,96.75
2018-07-02T04:02:16.388Z,96.56
2018-07-02T04:03:16.414Z,97.32
2018-07-02T04:04:17.032Z,96.56
2018-07-02T04:05:16.454Z,96.84
2018-07-02T04:07:16.219Z,96.7
2018-07-02T04:08:16.978Z,96.36
2018-07-02T04:10:16.550Z,96.13
2018-07-02T04:11:16.301Z,96.13
2018-07-02T04:12:16.784Z,96.32
2018-07-02T04:13:16.890Z,95.65
2018-07-02T04:14:16.371Z,95.65
2018-07-02T04:15:16.666Z,94.22
2018-07-02T04:16:16.674Z,91.78
2018-07-02T04:17:16.698Z,88.15
2018-07-02T04:18:17.166Z,85.81
2018-07-02T04:19:16.471Z,82.79
2018-07-02T04:20:16.771Z,81.25
2018-07-02T04:21:17.242Z,78.38
2018-07-02T04:23:16.566Z,75.1
2018-07-02T04:24:16.876Z,73.32
2018-07-02T04:25:17.391Z,71.92
2018-07-02T04:26:31.558Z,71.44
2018-07-02T04:27:16.938Z,71.25
2018-07-02T04:28:17.431Z,71.25
2018-07-02T04:29:16.981Z,70
2018-07-02T04:30:17.026Z,68.5
2018-07-02T04:31:16.763Z,66.71
2018-07-02T04:32:16.790Z,64.85
2018-07-02T04:33:17.094Z,65.14
2018-07-02T04:34:17.283Z,64.34
2018-07-02T04:35:17.657Z,63.73
2018-07-02T04:36:17.185Z,61.91
2018-07-02T04:37:16.922Z,60.88
2018-07-02T04:38:17.242Z,60.39
2018-07-02T04:39:17.900Z,58.5
2018-07-02T04:40:17.740Z,56.37
2018-07-02T04:41:17.310Z,55.12
2018-07-02T04:42:31.978Z,53.44
2018-07-02T04:43:17.789Z,52.33
2018-07-02T04:44:17.938Z,51.56
2018-07-02T04:45:18.067Z,51.46
2018-07-02T04:46:18.080Z,50.21
2018-07-02T04:47:17.197Z,49.95
2018-07-02T04:48:18.080Z,50.04
2018-07-02T04:49:17.258Z,48.9
2018-07-02T04:50:18.078Z,47.58
2018-07-02T04:51:18.057Z,46.73
2018-07-02T04:53:17.961Z,45.51
2018-07-02T04:54:18.233Z,44.27
2018-07-02T04:55:17.437Z,44.09
2018-07-02T04:56:17.468Z,43.43
2018-07-02T04:58:32.449Z,42.82
2018-07-02T04:59:18.422Z,43.12
2018-07-02T05:00:17.590Z,43.7
2018-07-02T05:01:17.884Z,42.55
2018-07-02T05:02:17.915Z,43.23
2018-07-02T05:03:18.009Z,42.07
2018-07-02T05:04:17.716Z,41.7
2018-07-02T05:05:18.009Z,40.67
2018-07-02T05:06:18.037Z,39.43
2018-07-02T05:07:17.813Z,39.43
2018-07-02T05:08:17.845Z,39.26
2018-07-02T05:09:18.133Z,39.06
2018-07-02T05:10:18.165Z,37.92
2018-07-02T05:11:18.200Z,37.56
2018-07-02T05:12:18.232Z,36.88
2018-07-02T05:13:18.264Z,37.27
2018-07-02T05:14:32.962Z,38.31
2018-07-02T05:15:18.075Z,37.64
2018-07-02T05:16:18.377Z,36.3
2018-07-02T05:17:18.400Z,36.32
2018-07-02T05:18:18.495Z,36.32
2018-07-02T05:19:18.465Z,35.46
2018-07-02T05:20:18.497Z,35.93
2018-07-02T05:22:18.565Z,35.26
2018-07-02T05:23:18.599Z,35.06
2018-07-02T05:26:18.444Z,34.34
2018-07-02T05:27:18.483Z,34.4
2018-07-02T05:28:18.871Z,33.83
2018-07-02T05:29:33.469Z,34.52
2018-07-02T05:30:18.580Z,33.56
2018-07-02T05:31:18.917Z,34.22
2018-07-02T05:32:18.909Z,34.68
2018-07-02T05:33:18.943Z,33.15
2018-07-02T05:34:18.976Z,32.79
2018-07-02T05:35:18.755Z,32.11
2018-07-02T05:36:19.048Z,31.64
2018-07-02T05:37:19.088Z,31.75
2018-07-02T05:38:19.123Z,31.56
2018-07-02T05:39:19.154Z,31.26
2018-07-02T05:40:19.188Z,30.61
2018-07-02T05:41:19.225Z,30.61
2018-07-02T05:42:19.257Z,31.65
2018-07-02T05:43:19.292Z,30.86
2018-07-02T05:44:19.330Z,30.97
2018-07-02T05:45:19.365Z,31.74
2018-07-02T05:46:19.402Z,30.87
2018-07-02T05:47:19.435Z,31.72
2018-07-02T05:48:19.472Z,31.72
2018-07-02T05:49:19.510Z,31.25
2018-07-02T05:50:19.540Z,31.46
2018-07-02T05:51:19.574Z,30.2
2018-07-02T05:52:19.615Z,29.74
2018-07-02T05:53:19.430Z,29.35
2018-07-02T05:54:19.686Z,29.66
2018-07-02T05:55:19.719Z,30.3
2018-07-02T05:56:19.759Z,30.2
2018-07-02T05:57:19.790Z,32.13
2018-07-02T05:58:19.830Z,32.92
2018-07-02T05:59:19.867Z,32.08
2018-07-02T06:00:20.186Z,33.26
2018-07-02T06:01:34.600Z,33.9
2018-07-02T06:02:19.970Z,34.17
2018-07-02T06:03:20.008Z,34.19
2018-07-02T06:04:20.044Z,34.94
2018-07-02T06:05:20.078Z,34.35
2018-07-02T06:06:20.117Z,33.14
2018-07-02T06:07:20.150Z,31.9
2018-07-02T06:08:20.217Z,30.66
2018-07-02T06:09:20.222Z,30.97
2018-07-02T06:10:20.260Z,30.66
2018-07-02T06:11:20.299Z,32.6
2018-07-02T06:12:20.331Z,32.73
2018-07-02T06:13:20.501Z,33.22
2018-07-02T06:14:20.411Z,33.43
2018-07-02T06:15:20.438Z,32.73
2018-07-02T06:16:20.476Z,33.51
2018-07-02T06:17:35.177Z,34.16
2018-07-02T06:18:20.546Z,32.82
2018-07-02T06:19:20.591Z,32.55
2018-07-02T06:20:20.620Z,33.14
2018-07-02T06:21:20.667Z,33.8
2018-07-02T06:22:20.690Z,34.14
2018-07-02T06:23:20.470Z,33.67
2018-07-02T06:25:20.807Z,31.51
2018-07-02T06:27:20.872Z,31.66
2018-07-02T06:28:20.912Z,32.08
2018-07-02T06:29:20.946Z,33.59
2018-07-02T06:30:21.013Z,34.05
2018-07-02T06:31:21.028Z,34.7
2018-07-02T06:32:21.058Z,34.98
2018-07-02T06:33:35.755Z,35.76
2018-07-02T06:34:21.129Z,36.02
2018-07-02T06:35:21.164Z,36.02
2018-07-02T06:36:20.941Z,34.79
2018-07-02T06:37:21.233Z,32.78
2018-07-02T06:38:21.276Z,32.91
2018-07-02T06:39:21.313Z,32.68
2018-07-02T06:40:21.096Z,33.18
2018-07-02T06:41:21.395Z,33.73
2018-07-02T06:42:21.417Z,33.64
2018-07-02T06:43:21.458Z,31.73
2018-07-02T06:44:21.495Z,30.6
2018-07-02T06:45:21.266Z,29.77
2018-07-02T06:46:21.562Z,30.6
2018-07-02T06:47:21.598Z,31.82
2018-07-02T06:48:21.665Z,31.98
2018-07-02T06:49:36.332Z,32.89
2018-07-02T06:50:21.709Z,31.73
2018-07-02T06:51:21.743Z,30.21
2018-07-02T06:52:21.521Z,30.21
2018-07-02T06:53:21.815Z,30.94
2018-07-02T06:54:21.850Z,30.57
2018-07-02T06:55:21.889Z,31.54
2018-07-02T06:56:21.924Z,30.85
2018-07-02T06:57:21.961Z,31.43
2018-07-02T06:59:22.038Z,32.08
2018-07-02T07:00:22.065Z,31.51
2018-07-02T07:01:22.106Z,30.39
2018-07-02T07:02:21.885Z,29.81
2018-07-02T07:03:21.919Z,28.96
2018-07-02T07:04:36.878Z,29.44
2018-07-02T07:05:22.263Z,29.88
2018-07-02T07:06:22.288Z,29.79
2018-07-02T07:07:22.326Z,28.83
2018-07-02T07:08:22.357Z,28.47
2018-07-02T07:09:22.395Z,28.26
2018-07-02T07:10:22.431Z,28.34
2018-07-02T07:11:22.471Z,28.63
2018-07-02T07:12:22.502Z,28.38
2018-07-02T07:13:22.282Z,29.82
2018-07-02T07:15:22.611Z,29.49
2018-07-02T07:16:22.650Z,29.22
2018-07-02T07:17:22.684Z,28.34
2018-07-02T07:18:22.728Z,28.38
2018-07-02T07:19:22.756Z,27.39
2018-07-02T07:20:22.793Z,28.14
2018-07-02T07:21:22.835Z,28.4
2018-07-02T07:22:22.865Z,28.33
2018-07-02T07:23:22.901Z,27.75
2018-07-02T07:24:22.680Z,28.4
2018-07-02T07:25:22.716Z,27.06
2018-07-02T07:26:22.756Z,25.93
2018-07-02T07:27:23.047Z,24.02
2018-07-02T07:28:23.086Z,24.13
2018-07-02T07:29:23.120Z,25.46
2018-07-02T07:30:23.157Z,26.37
2018-07-02T07:31:23.192Z,27.15
2018-07-02T07:32:23.224Z,27.92
2018-07-02T07:33:23.263Z,28.59
2018-07-02T07:34:23.303Z,29.14
2018-07-02T07:35:23.332Z,29.35
2018-07-02T07:36:38.035Z,29.05
2018-07-02T07:37:23.526Z,27.93
2018-07-02T07:38:23.185Z,27.08
2018-07-02T07:39:23.223Z,28.92
2018-07-02T07:40:23.518Z,28.08
2018-07-02T07:41:23.555Z,28.19
2018-07-02T07:42:23.588Z,27.53
2018-07-02T07:43:23.621Z,26.58
2018-07-02T07:44:23.656Z,26.01
2018-07-02T07:45:23.693Z,24.78
2018-07-02T07:46:23.728Z,25.47
2018-07-02T07:47:23.766Z,26.51
2018-07-02T07:48:23.802Z,26.3
2018-07-02T07:49:23.578Z,26.57
2018-07-02T07:50:23.873Z,26.48
2018-07-02T07:51:23.913Z,26.21
2018-07-02T07:52:38.607Z,25.84
2018-07-02T07:53:23.983Z,25.07
2018-07-02T07:54:24.014Z,25.36
2018-07-02T07:55:24.051Z,24.39
2018-07-02T07:56:24.087Z,24.32
2018-07-02T07:57:24.121Z,23.93
2018-07-02T07:58:24.158Z,23.85
2018-07-02T07:59:24.247Z,23.35
2018-07-02T08:00:24.230Z,24.03
2018-07-02T08:01:24.270Z,24.89
2018-07-02T08:02:24.300Z,25.74
2018-07-02T08:03:24.345Z,26.41
2018-07-02T08:04:24.378Z,25.81
2018-07-02T08:05:24.408Z,25.45
2018-07-02T08:06:24.450Z,25.26
2018-07-02T08:07:24.480Z,26.2
2018-07-02T08:08:39.179Z,25.92
2018-07-02T08:09:24.549Z,25.75
2018-07-02T08:11:24.622Z,25.75
2018-07-02T08:12:24.708Z,25.84
2018-07-02T08:13:24.433Z,24.5
2018-07-02T08:14:24.727Z,24.22
2018-07-02T08:15:24.770Z,24.33
2018-07-02T08:16:24.541Z,25.95
2018-07-02T08:18:24.870Z,26.19
2018-07-02T08:19:24.907Z,26.95
2018-07-02T08:20:24.939Z,26.4
2018-07-02T08:21:24.975Z,26.61
2018-07-02T08:22:25.011Z,26.51
2018-07-02T08:23:25.046Z,27.93
2018-07-02T08:24:39.745Z,28.11
2018-07-02T08:25:25.121Z,28.3
2018-07-02T08:26:25.147Z,28.97
2018-07-02T08:27:25.311Z,28.49
2018-07-02T08:28:25.220Z,28.13
2018-07-02T08:29:25.256Z,28.69
2018-07-02T08:30:25.288Z,29.35
2018-07-02T08:31:25.068Z,29.72
2018-07-02T08:33:25.138Z,29.8
2018-07-02T08:34:25.179Z,28.96
2018-07-02T08:35:25.464Z,28.5
2018-07-02T08:36:25.503Z,27.28
2018-07-02T08:37:25.275Z,25.75
2018-07-02T08:38:25.314Z,24.51
2018-07-02T08:39:40.267Z,24.52
2018-07-02T08:41:25.742Z,25.2
2018-07-02T08:42:25.707Z,26.32
2018-07-02T08:43:25.742Z,27.16
2018-07-02T08:44:25.775Z,27.23
2018-07-02T08:45:25.810Z,27.25
2018-07-02T08:46:25.847Z,27.55
2018-07-02T08:47:25.620Z,26.4
2018-07-02T08:48:25.654Z,26.69
2018-07-02T08:49:25.946Z,27.08
2018-07-02T08:50:25.982Z,28.32
2018-07-02T08:51:25.759Z,28.51
2018-07-02T08:52:25.792Z,28.5
2018-07-02T08:53:26.086Z,28.32
2018-07-02T08:54:26.125Z,27.83
2018-07-02T08:55:25.895Z,27.16
2018-07-02T08:56:26.196Z,26.62
2018-07-02T08:57:26.223Z,24.99
2018-07-02T08:58:26.337Z,24.04
2018-07-02T08:59:26.288Z,23.74
2018-07-02T09:00:26.323Z,23.57
2018-07-02T09:01:26.373Z,23.94
2018-07-02T09:02:26.391Z,24.81
2018-07-02T09:03:26.425Z,25.75
2018-07-02T09:04:26.460Z,25.85
2018-07-02T09:05:26.493Z,25.39
2018-07-02T09:06:26.539Z,24.81
2018-07-02T09:07:26.303Z,23.96
2018-07-02T09:08:26.595Z,23.87
2018-07-02T09:09:26.644Z,22.99
2018-07-02T09:10:26.662Z,23.49
2018-07-02T09:11:41.362Z,23.94
2018-07-02T09:12:26.476Z,25.18
2018-07-02T09:13:26.509Z,27.37
2018-07-02T09:14:26.799Z,27.65
2018-07-02T09:15:26.837Z,27.65
2018-07-02T09:16:26.866Z,27.39
2018-07-02T09:17:26.648Z,27
2018-07-02T09:18:26.937Z,26.51
2018-07-02T09:19:26.981Z,26.42
2018-07-02T09:20:27.015Z,26.04
2018-07-02T09:21:27.043Z,25.2
2018-07-02T09:23:27.110Z,25.08
2018-07-02T09:24:26.884Z,26.43
2018-07-02T09:25:27.174Z,27.66
2018-07-02T09:26:27.208Z,28.64
2018-07-02T09:27:41.909Z,27.66
2018-07-02T09:28:27.277Z,27.86
2018-07-02T09:29:27.313Z,28.43
2018-07-02T09:30:27.345Z,27.54
2018-07-02T09:31:27.377Z,28.26
2018-07-02T09:32:27.691Z,27.47
2018-07-02T09:33:27.446Z,27.09
2018-07-02T09:34:27.475Z,26.63
2018-07-02T09:36:27.543Z,25.12
2018-07-02T09:37:27.576Z,23.96
2018-07-02T09:38:27.610Z,23.79
2018-07-02T09:39:27.863Z,23.6
2018-07-02T09:40:27.676Z,24.57
2018-07-02T09:41:27.708Z,26.91
2018-07-02T09:42:27.740Z,28.33
2018-07-02T09:43:42.437Z,29.19
2018-07-02T09:44:27.550Z,30.8
2018-07-02T09:45:27.840Z,31.73
2018-07-02T09:46:27.973Z,31.44
2018-07-02T09:47:27.646Z,30.21
2018-07-02T09:48:27.937Z,29.75
2018-07-02T09:49:27.731Z,28.76
2018-07-02T09:50:28.006Z,28.2
2018-07-02T09:51:28.042Z,27.65
2018-07-02T09:52:28.067Z,26.62
2018-07-02T09:54:28.139Z,25.18
2018-07-02T09:55:28.163Z,25.49
2018-07-02T09:56:28.200Z,25.76
2018-07-02T09:57:28.225Z,26.63
2018-07-02T09:58:28.262Z,26.62
2018-07-02T09:59:42.954Z,29.02
2018-07-02T10:00:28.360Z,29.64
2018-07-02T10:01:28.099Z,29.44
2018-07-02T10:02:28.390Z,28.32
2018-07-02T10:03:28.421Z,26.53
2018-07-02T10:04:28.195Z,25.68
2018-07-02T10:05:28.486Z,25.12
2018-07-02T10:06:28.304Z,25.81
2018-07-02T10:08:28.587Z,29.02
2018-07-02T10:09:28.718Z,29.86
2018-07-02T10:10:28.642Z,29.94
2018-07-02T10:11:28.673Z,29.18
2018-07-02T10:12:28.713Z,28.7
2018-07-02T10:13:28.481Z,28.43
2018-07-02T10:14:43.434Z,26.61
2018-07-02T10:15:28.802Z,25.76
2018-07-02T10:16:28.836Z,26.84
2018-07-02T10:17:28.863Z,28.14
2018-07-02T10:18:28.896Z,29.36
2018-07-02T10:19:28.933Z,30.19
2018-07-02T10:20:28.704Z,31.05
2018-07-02T10:21:28.995Z,30.76
2018-07-02T10:23:29.169Z,30.58
2018-07-02T10:24:29.083Z,29.35
2018-07-02T10:25:28.857Z,28.88
2018-07-02T10:26:29.150Z,28.97
2018-07-02T10:27:29.181Z,28.59
2018-07-02T10:28:29.207Z,27.82
2018-07-02T10:29:29.355Z,27.26
2018-07-02T10:30:29.278Z,26.8
2018-07-02T10:32:29.331Z,25.64
2018-07-02T10:33:29.360Z,25.84
2018-07-02T10:34:29.393Z,25.45
2018-07-02T10:35:29.430Z,25.95
2018-07-02T10:36:29.455Z,26.52
2018-07-02T10:37:29.487Z,27.19
2018-07-02T10:40:29.579Z,30.5
2018-07-02T10:41:29.612Z,31.18
2018-07-02T10:42:29.640Z,31.57
2018-07-02T10:43:29.670Z,31.47
2018-07-02T10:44:29.701Z,31.65
2018-07-02T10:45:29.729Z,32.6
2018-07-02T10:46:44.425Z,32.89
2018-07-02T10:47:29.792Z,32.87
2018-07-02T10:48:29.821Z,33.46
2018-07-02T10:49:29.593Z,34.23
2018-07-02T10:50:29.983Z,34.12
2018-07-02T10:51:29.913Z,34.49
2018-07-02T10:52:29.943Z,34.8
2018-07-02T10:53:29.969Z,34.89
2018-07-02T10:54:29.998Z,35.17
2018-07-02T10:55:30.039Z,35.46
2018-07-02T10:56:29.801Z,35.44
2018-07-02T10:58:30.119Z,34.41
2018-07-02T10:59:30.149Z,33.83
2018-07-02T11:00:30.176Z,34.04
2018-07-02T11:01:30.408Z,33.36
2018-07-02T11:02:44.899Z,33.56
2018-07-02T11:03:30.266Z,33.73
2018-07-02T11:04:30.292Z,34.22
2018-07-02T11:05:30.326Z,34.12
2018-07-02T11:06:30.354Z,34.61
2018-07-02T11:07:30.130Z,35.93
2018-07-02T11:08:30.412Z,35.93
2018-07-02T11:09:30.439Z,35.46
2018-07-02T11:10:30.468Z,35.56
2018-07-02T11:11:30.501Z,35.46
2018-07-02T11:12:30.548Z,34.97
2018-07-02T11:13:30.557Z,34.59
2018-07-02T11:14:30.586Z,34.49
2018-07-02T11:15:30.618Z,34.2
2018-07-02T11:16:30.644Z,34.61
2018-07-02T11:17:30.413Z,32.39
2018-07-02T11:18:45.361Z,32.29
2018-07-02T11:19:30.469Z,32.39
2018-07-02T11:20:30.755Z,32.86
2018-07-02T11:21:30.785Z,32.37
2018-07-02T11:22:30.811Z,31.81
2018-07-02T11:23:30.842Z,31.82
2018-07-02T11:24:30.872Z,30.79
2018-07-02T11:25:30.903Z,30.59
2018-07-02T11:27:30.702Z,29.94
2018-07-02T11:28:30.996Z,29.38
2018-07-02T11:29:31.017Z,30.82
2018-07-02T11:30:31.047Z,30.05
2018-07-02T11:31:30.817Z,30.64
2018-07-02T11:32:31.104Z,31.76
2018-07-02T11:33:31.133Z,31.65
2018-07-02T11:34:45.823Z,31.94
2018-07-02T11:35:31.190Z,32.04
2018-07-02T11:36:31.219Z,32.91
2018-07-02T11:37:31.409Z,33.26
2018-07-02T11:38:31.276Z,32.68
2018-07-02T11:39:31.304Z,33.46
2018-07-02T11:40:31.356Z,34.31
2018-07-02T11:41:31.363Z,35.07
2018-07-02T11:42:31.395Z,35.28
2018-07-02T11:43:31.423Z,35.44
2018-07-02T11:44:31.449Z,35.46
2018-07-02T11:45:31.488Z,35.09
2018-07-02T11:46:31.506Z,34.72
2018-07-02T11:47:31.545Z,35.19
2018-07-02T11:48:31.306Z,34.89
2018-07-02T11:49:46.346Z,34.51
2018-07-02T11:50:31.621Z,33.92
2018-07-02T11:51:31.651Z,34.51
2018-07-02T11:52:31.679Z,34.49
2018-07-02T11:53:31.718Z,33.54
2018-07-02T11:54:31.734Z,33.34
2018-07-02T11:55:31.764Z,33.81
2018-07-02T11:56:31.535Z,34.01
2018-07-02T11:57:32.014Z,34.69
2018-07-02T11:58:31.850Z,34.01
2018-07-02T11:59:31.886Z,34.69
2018-07-02T12:00:31.905Z,34.11
2018-07-02T12:01:31.936Z,33.52
2018-07-02T12:02:31.964Z,33.91
2018-07-02T12:03:31.994Z,34.67
2018-07-02T12:04:32.022Z,34.01
2018-07-02T12:05:31.821Z,34.57
2018-07-02T12:06:32.075Z,34.47
2018-07-02T12:07:31.847Z,34.65
2018-07-02T12:08:32.133Z,35.42
2018-07-02T12:09:32.157Z,35.04
2018-07-02T12:10:32.185Z,34.47
2018-07-02T12:11:32.217Z,34.57
2018-07-02T12:12:32.242Z,34.65
2018-07-02T12:13:32.270Z,35.23
2018-07-02T12:15:32.327Z,35.21
2018-07-02T12:16:32.355Z,35.62
2018-07-02T12:17:32.386Z,35.15
2018-07-02T12:18:32.152Z,34.96
2018-07-02T12:19:32.446Z,35.54
2018-07-02T12:20:32.208Z,34.96
2018-07-02T12:21:47.156Z,33.62
2018-07-02T12:22:32.269Z,32.96
2018-07-02T12:23:32.548Z,33.23
2018-07-02T12:24:32.576Z,32.28
2018-07-02T12:25:32.349Z,32.09
2018-07-02T12:26:32.630Z,32.56
2018-07-02T12:27:32.666Z,32.64
2018-07-02T12:28:32.692Z,32.07
2018-07-02T12:30:32.754Z,31.62
2018-07-02T12:31:32.775Z,30.85
2018-07-02T12:32:32.802Z,29.72
2018-07-02T12:33:32.975Z,30.38
2018-07-02T12:34:32.858Z,30.38
2018-07-02T12:35:32.882Z,30.87
2018-07-02T12:36:32.913Z,31.71
2018-07-02T12:37:47.604Z,32.86
2018-07-02T12:38:32.967Z,33.42
2018-07-02T12:39:32.739Z,33.54
2018-07-02T12:40:32.769Z,33.91
2018-07-02T12:42:33.088Z,35.15
2018-07-02T12:43:33.113Z,34.96
2018-07-02T12:45:32.908Z,35.5
2018-07-02T12:46:32.935Z,36.08
2018-07-02T12:47:33.220Z,36.94
2018-07-02T12:48:33.251Z,37.04
2018-07-02T12:49:33.275Z,36.94
2018-07-02T12:50:33.051Z,36.74
2018-07-02T12:51:33.334Z,35.99
2018-07-02T12:52:33.360Z,35.99
2018-07-02T12:53:48.048Z,35.31
2018-07-02T12:54:33.497Z,35.99
2018-07-02T12:55:33.445Z,36.57
2018-07-02T12:56:33.471Z,36.66
2018-07-02T12:57:33.502Z,36.84
2018-07-02T12:58:33.525Z,37.6
2018-07-02T12:59:33.655Z,37.88
2018-07-02T13:00:33.590Z,37.13
2018-07-02T13:01:33.613Z,37.04
2018-07-02T13:03:33.675Z,37.15
2018-07-02T13:04:33.687Z,37.24
2018-07-02T13:05:33.531Z,36.76
2018-07-02T13:06:33.750Z,36.66
2018-07-02T13:07:33.770Z,35.91
2018-07-02T13:08:33.799Z,35.13
2018-07-02T13:09:48.486Z,35.81
2018-07-02T13:10:33.863Z,35.42
2018-07-02T13:11:33.879Z,35.62
2018-07-02T13:12:33.910Z,36.02
2018-07-02T13:13:33.731Z,35.54
2018-07-02T13:14:33.963Z,34.59
2018-07-02T13:15:33.729Z,34.49
2018-07-02T13:16:34.015Z,34.78
2018-07-02T13:17:33.785Z,34.49
2018-07-02T13:18:34.069Z,34.02
2018-07-02T13:19:34.101Z,33.91
2018-07-02T13:21:34.154Z,33.62
2018-07-02T13:22:33.925Z,33.92
2018-07-02T13:23:34.208Z,32.47
2018-07-02T13:24:48.896Z,32.68
2018-07-02T13:25:34.265Z,32.68
2018-07-02T13:26:34.291Z,32.68
2018-07-02T13:27:34.318Z,32.41
2018-07-02T13:28:34.088Z,32.87
2018-07-02T13:29:34.382Z,32.57
2018-07-02T13:30:34.401Z,33.33
2018-07-02T13:31:34.170Z,34.11
2018-07-02T13:32:34.457Z,34.39
2018-07-02T13:33:34.492Z,33.72
2018-07-02T13:34:34.510Z,33.62
2018-07-02T13:35:34.539Z,33.62
2018-07-02T13:36:34.639Z,34.2
2018-07-02T13:38:34.361Z,32.68
2018-07-02T13:39:34.647Z,33.34
2018-07-02T13:40:34.677Z,33.25
2018-07-02T13:41:34.740Z,33.07
2018-07-02T13:42:34.732Z,33.54
2018-07-02T13:43:34.759Z,33.06
2018-07-02T13:44:34.796Z,32.5
2018-07-02T13:45:34.814Z,32.6